Time;durP1;ratioP1;P1;durP2;ratioP2;P2;SDS_P1;SDS_P2;PMS_P1;PMS_P2;Temp;Humidity;BMP_temperature;BMP_pressure;BME280_temperature;BME280_humidity;BME280_pressure;Samples;Min_cycle;Max_cycle;Signal;HPM_P1;HPM_P2
2021/10/05 00:00:44;;;;;;;;;;;;;;;12.27;67.68;99308.03;5070172;28;19919;-73
2021/10/05 00:03:09;;;;;;;;;;;;;;;12.23;68.09;99303.84;5065268;28;19967;-72
2021/10/05 00:05:34;;;;;;;;;;;;;;;12.19;68.38;99299.75;5062097;28;20457;-72
2021/10/05 00:08:00;;;;;;;;;;;;;;;12.17;68.51;99305.09;5069635;28;19958;-71
2021/10/05 00:10:25;;;;;;;;;;;;;;;12.16;68.49;99295.50;5069705;28;19923;-71
2021/10/05 00:12:50;;;;;;;;;;;;;;;12.17;68.17;99291.91;5068676;28;19922;-72
2021/10/05 00:15:16;;;;;;;;;;;;;;;12.18;67.75;99288.31;5070113;28;19923;-72
2021/10/05 00:17:41;;;;;;;;;;;;;;;12.19;68.34;99286.53;5067686;28;20282;-72
2021/10/05 00:20:07;;;;;;;;;;;;;;;12.17;68.36;99283.97;5066771;28;20383;-72
2021/10/05 00:22:32;;;;;;;;;;;;;;;12.16;67.75;99282.28;5068836;28;19917;-72
2021/10/05 00:24:57;;;;;;;;;;;;;;;12.16;68.12;99279.66;5069714;28;19912;-73
2021/10/05 00:27:22;;;;;;;;;;;;;;;12.15;68.15;99269.16;5069421;28;20355;-73
2021/10/05 00:29:48;;;;;;;;;;;;;;;12.16;67.89;99271.72;5069549;28;20354;-72
2021/10/05 00:32:13;;;;;;;;;;;;;;;12.18;68.04;99275.13;5069105;28;19999;-73
2021/10/05 00:34:38;;;;;;;;;;;;;;;12.19;67.64;99273.31;5069598;28;19916;-73
2021/10/05 00:37:03;;;;;;;;;;;;;;;12.21;67.85;99274.91;5068924;28;19921;-72
2021/10/05 00:39:29;;;;;;;;;;;;;;;12.21;67.28;99274.91;5069040;28;19916;-72
2021/10/05 00:41:54;;;;;;;;;;;;;;;12.19;67.64;99265.38;5068666;28;19970;-72
2021/10/05 00:44:29;;;;;;;;;;;;;;;12.20;67.09;99269.72;5068999;28;20315;-72
2021/10/05 00:46:54;;;;;;;;;;;;;;;12.19;67.60;99266.22;5069664;28;20372;-73
2021/10/05 00:49:20;;;;;;;;;;;;;;;12.19;67.65;99262.75;5067505;28;19916;-73
2021/10/05 00:51:45;;;;;;;;;;;;;;;12.19;67.16;99258.28;5067838;28;19916;-73
2021/10/05 00:54:10;;;;;;;;;;;;;;;12.21;67.12;99248.47;5069945;28;19924;-73
2021/10/05 00:56:35;;;;;;;;;;;;;;;12.19;67.90;99250.38;5069993;28;19924;-73
2021/10/05 00:59:00;;;;;;;;;;;;;;;12.20;67.57;99246.75;5069638;28;19912;-72
2021/10/05 01:01:26;;;;;;;;;;;;;;;12.19;67.29;99242.44;5042052;28;19939;-72
2021/10/05 01:03:51;;;;;;;;;;;;;;;12.26;66.99;99237.63;5066701;28;20525;-72
2021/10/05 01:06:16;;;;;;;;;;;;;;;12.29;67.03;99240.06;5069364;28;19919;-72
2021/10/05 01:08:41;;;;;;;;;;;;;;;12.35;66.52;99225.59;5069198;28;19920;-73
2021/10/05 01:11:07;;;;;;;;;;;;;;;12.34;66.88;99227.38;5067671;28;20368;-73
2021/10/05 01:13:32;;;;;;;;;;;;;;;12.34;66.94;99218.59;5068890;28;19913;-73
2021/10/05 01:15:57;;;;;;;;;;;;;;;12.32;67.19;99216.06;5067775;28;19928;-73
2021/10/05 01:18:23;;;;;;;;;;;;;;;12.27;67.36;99215.50;5073065;28;20015;-73
2021/10/05 01:20:54;;;;;;;;;;;;;;;12.25;66.63;99212.13;5072687;28;19912;-73
2021/10/05 01:23:20;;;;;;;;;;;;;;;12.26;67.02;99203.25;5072592;28;19920;-73
2021/10/05 01:25:46;;;;;;;;;;;;;;;12.25;67.13;99186.53;5073265;28;19921;-72
2021/10/05 01:28:12;;;;;;;;;;;;;;;12.27;67.35;99188.25;5072935;28;19962;-72
2021/10/05 01:30:37;;;;;;;;;;;;;;;12.26;66.70;99176.84;5073321;28;20019;-73
2021/10/05 01:33:02;;;;;;;;;;;;;;;12.28;66.19;99180.22;5070866;28;20360;-72
2021/10/05 01:35:27;;;;;;;;;;;;;;;12.31;66.56;99182.66;5070847;28;20287;-72
2021/10/05 01:37:52;;;;;;;;;;;;;;;12.32;66.56;99171.13;5072627;28;19962;-73
2021/10/05 01:40:18;;;;;;;;;;;;;;;12.37;66.42;99170.81;5072246;28;19924;-72
2021/10/05 01:42:43;;;;;;;;;;;;;;;12.38;65.50;99156.66;5071617;28;19966;-72
2021/10/05 01:45:09;;;;;;;;;;;;;;;12.35;65.93;99162.13;5072653;28;20387;-72
2021/10/05 01:47:34;;;;;;;;;;;;;;;12.33;66.34;99159.63;5069813;28;19919;-72
2021/10/05 01:49:59;;;;;;;;;;;;;;;12.36;65.60;99151.47;5071406;28;19912;-73
2021/10/05 01:52:24;;;;;;;;;;;;;;;12.36;65.93;99146.19;5072215;28;20026;-72
2021/10/05 01:54:50;;;;;;;;;;;;;;;12.34;66.10;99145.44;5070965;28;19912;-73
2021/10/05 01:57:15;;;;;;;;;;;;;;;12.33;66.60;99138.47;5072089;28;19954;-73
2021/10/05 01:59:40;;;;;;;;;;;;;;;12.34;65.98;99136.66;5070846;28;19923;-72
2021/10/05 02:02:06;;;;;;;;;;;;;;;12.35;66.50;99127.78;5071982;28;19923;-73
2021/10/05 02:04:31;;;;;;;;;;;;;;;12.34;65.94;99124.28;5067860;28;19912;-73
2021/10/05 02:06:56;;;;;;;;;;;;;;;12.31;66.57;99119.22;5072107;28;19955;-73
2021/10/05 02:09:21;;;;;;;;;;;;;;;12.33;66.57;99130.53;5070644;28;19913;-73
2021/10/05 02:11:46;;;;;;;;;;;;;;;12.33;66.49;99113.81;5070714;28;19912;-73
2021/10/05 02:14:12;;;;;;;;;;;;;;;12.33;65.70;99108.53;5070762;28;19916;-72
2021/10/05 02:16:37;;;;;;;;;;;;;;;12.32;66.21;99101.56;5072220;28;19916;-72
2021/10/05 02:19:03;;;;;;;;;;;;;;;12.31;66.44;99099.88;5071848;28;20489;-71
2021/10/05 02:21:28;;;;;;;;;;;;;;;12.32;66.00;99091.00;5067613;28;19920;-71
2021/10/05 02:26:38;;;;;;;;;;;;;;;12.33;65.66;99082.09;5071528;28;20033;-71
2021/10/05 02:29:04;;;;;;;;;;;;;;;12.35;65.95;99085.50;5070206;28;20374;-72
2021/10/05 02:31:29;;;;;;;;;;;;;;;12.33;65.86;99082.09;5070719;28;19916;-72
2021/10/05 02:33:54;;;;;;;;;;;;;;;12.31;65.76;99082.22;5071672;28;19916;-71
2021/10/05 02:36:20;;;;;;;;;;;;;;;12.31;65.70;99068.16;5071734;28;19919;-72
2021/10/05 02:38:45;;;;;;;;;;;;;;;12.29;65.48;99072.69;5071621;28;19920;-72
2021/10/05 02:41:10;;;;;;;;;;;;;;;12.28;65.81;99073.63;5071106;28;19923;-72
2021/10/05 02:43:36;;;;;;;;;;;;;;;12.27;66.31;99064.03;5070594;28;19954;-72
2021/10/05 02:46:01;;;;;;;;;;;;;;;12.27;65.70;99064.03;5071781;28;19999;-72
2021/10/05 02:48:27;;;;;;;;;;;;;;;12.27;66.13;99064.88;5071276;28;19916;-72
2021/10/05 02:50:52;;;;;;;;;;;;;;;12.24;65.87;99055.34;5071010;28;19913;-73
2021/10/05 02:53:17;;;;;;;;;;;;;;;12.23;66.34;99050.16;5069255;28;19916;-72
2021/10/05 02:55:43;;;;;;;;;;;;;;;12.22;66.43;99037.91;5070643;28;19916;-73
2021/10/05 02:58:08;;;;;;;;;;;;;;;12.22;66.26;99044.03;5053008;28;19913;-73
2021/10/05 03:00:34;;;;;;;;;;;;;;;12.27;65.92;99040.25;5071515;28;19916;-72
2021/10/05 03:02:59;;;;;;;;;;;;;;;12.29;65.83;99035.69;5070779;28;19916;-73
2021/10/05 03:05:24;;;;;;;;;;;;;;;12.27;65.42;99029.66;5071254;28;19943;-71
2021/10/05 03:07:49;;;;;;;;;;;;;;;12.27;65.91;99027.03;5071020;28;19912;-71
2021/10/05 03:10:14;;;;;;;;;;;;;;;12.25;66.04;99020.03;5069329;28;19916;-71
2021/10/05 03:12:40;;;;;;;;;;;;;;;12.25;65.67;99025.31;5070233;28;19951;-71
2021/10/05 03:15:05;;;;;;;;;;;;;;;12.25;65.92;99016.56;5070926;28;19923;-71
2021/10/05 03:17:30;;;;;;;;;;;;;;;12.23;66.54;99011.38;5070908;28;19952;-72
2021/10/05 03:19:56;;;;;;;;;;;;;;;12.24;66.14;99005.13;5070728;28;19924;-71
2021/10/05 03:22:21;;;;;;;;;;;;;;;12.22;66.06;99007.03;5068719;28;19969;-72
2021/10/05 03:24:46;;;;;;;;;;;;;;;12.21;66.45;99005.34;5070403;28;19948;-71
2021/10/05 03:27:11;;;;;;;;;;;;;;;12.17;66.56;98997.75;5070549;28;19960;-72
2021/10/05 03:29:38;;;;;;;;;;;;;;;12.15;66.32;98992.56;5070744;28;19912;-71
2021/10/05 03:32:03;;;;;;;;;;;;;;;12.14;66.32;98990.88;5069835;28;19991;-71
2021/10/05 03:34:28;;;;;;;;;;;;;;;12.15;67.23;98978.50;5064023;28;20003;-71
2021/10/05 03:36:54;;;;;;;;;;;;;;;12.14;67.17;98969.72;5065815;28;19952;-72
2021/10/05 03:39:19;;;;;;;;;;;;;;;12.14;66.65;98972.38;5067699;28;19928;-72
2021/10/05 03:41:44;;;;;;;;;;;;;;;12.14;66.25;98977.66;5050736;28;19940;-71
2021/10/05 03:44:09;;;;;;;;;;;;;;;12.13;66.97;98962.75;5052813;28;19965;-72
2021/10/05 03:46:35;;;;;;;;;;;;;;;12.13;67.00;98960.09;5050604;28;19999;-72
2021/10/05 03:49:00;;;;;;;;;;;;;;;12.09;67.03;98963.91;5049739;28;20047;-72
2021/10/05 03:51:25;;;;;;;;;;;;;;;12.09;67.11;98966.56;5047982;28;20682;-72
2021/10/05 03:53:50;;;;;;;;;;;;;;;12.06;66.85;98963.28;5050309;28;20391;-72
2021/10/05 03:56:16;;;;;;;;;;;;;;;12.05;66.74;98969.53;5049324;28;19916;-73
2021/10/05 03:58:41;;;;;;;;;;;;;;;12.07;66.47;98970.25;5049158;28;20426;-72
2021/10/05 04:01:06;;;;;;;;;;;;;;;12.06;67.32;98964.13;5049568;28;19913;-71
2021/10/05 04:03:32;;;;;;;;;;;;;;;12.07;66.59;98962.34;5048583;28;19916;-72
2021/10/05 04:05:57;;;;;;;;;;;;;;;12.05;66.53;98959.78;5050132;28;19912;-71
2021/10/05 04:08:22;;;;;;;;;;;;;;;12.03;66.68;98952.00;5050094;28;19912;-72
2021/10/05 04:10:47;;;;;;;;;;;;;;;12.06;67.25;98948.28;5049713;28;19919;-71
2021/10/05 04:13:13;;;;;;;;;;;;;;;12.06;66.96;98950.94;5049287;28;19923;-73
2021/10/05 04:15:38;;;;;;;;;;;;;;;12.04;67.17;98934.34;5050263;28;19962;-72
2021/10/05 04:18:04;;;;;;;;;;;;;;;12.02;66.75;98934.44;5049862;28;19916;-71
2021/10/05 04:20:29;;;;;;;;;;;;;;;12.05;66.11;98936.00;5048386;28;19917;-71
2021/10/05 04:22:54;;;;;;;;;;;;;;;12.04;66.98;98923.78;5049067;28;20715;-72
2021/10/05 04:25:20;;;;;;;;;;;;;;;12.03;66.50;98927.34;5050560;28;19913;-71
2021/10/05 04:27:45;;;;;;;;;;;;;;;12.03;66.86;98927.34;5052502;28;19948;-72
2021/10/05 04:30:11;;;;;;;;;;;;;;;12.02;66.81;98925.66;5050409;28;19947;-72
2021/10/05 04:32:36;;;;;;;;;;;;;;;12.05;66.64;98919.31;5050294;28;20415;-71
2021/10/05 04:35:01;;;;;;;;;;;;;;;12.06;66.66;98910.44;5049332;28;19978;-72
2021/10/05 04:37:27;;;;;;;;;;;;;;;12.06;67.15;98911.31;5049375;28;19927;-72
2021/10/05 04:39:52;;;;;;;;;;;;;;;12.05;66.98;98909.59;5049743;28;19975;-71
2021/10/05 04:42:17;;;;;;;;;;;;;;;12.04;66.46;98907.91;5046771;28;19913;-72
2021/10/05 04:44:43;;;;;;;;;;;;;;;12.04;66.61;98907.91;5049619;28;19944;-74
2021/10/05 04:47:08;;;;;;;;;;;;;;;12.02;66.85;98897.44;5049790;28;20001;-72
2021/10/05 04:49:33;;;;;;;;;;;;;;;12.00;67.17;98890.56;5048122;28;19917;-71
2021/10/05 04:51:58;;;;;;;;;;;;;;;11.98;66.86;98892.47;5047308;28;20008;-72
2021/10/05 04:54:24;;;;;;;;;;;;;;;12.01;66.50;98889.63;5050258;28;20006;-72
2021/10/05 04:56:49;;;;;;;;;;;;;;;12.03;66.34;98885.94;5049188;28;19912;-72
2021/10/05 04:59:16;;;;;;;;;;;;;;;12.04;66.57;98886.78;5049206;28;19921;-72
2021/10/05 05:01:41;;;;;;;;;;;;;;;12.08;65.86;98876.84;5050192;28;19917;-72
2021/10/05 05:04:07;;;;;;;;;;;;;;;12.10;66.32;98875.78;5051142;28;20265;-72
2021/10/05 05:06:32;;;;;;;;;;;;;;;12.11;66.06;98874.84;5052051;28;20369;-72
2021/10/05 05:08:57;;;;;;;;;;;;;;;12.13;65.77;98866.78;5051727;28;20422;-73
2021/10/05 05:11:22;;;;;;;;;;;;;;;12.12;65.71;98862.47;5048227;28;20003;-74
2021/10/05 05:13:48;;;;;;;;;;;;;;;12.08;65.82;98859.19;5048519;28;20007;-73
2021/10/05 05:16:13;;;;;;;;;;;;;;;12.08;66.08;98867.09;5048912;28;19917;-70
2021/10/05 05:18:38;;;;;;;;;;;;;;;12.07;66.46;98854.03;5048956;28;20612;-72
2021/10/05 05:21:03;;;;;;;;;;;;;;;12.12;65.99;98851.91;5048215;28;19939;-70
2021/10/05 05:23:29;;;;;;;;;;;;;;;12.15;66.00;98841.94;5048392;28;20269;-73
2021/10/05 05:25:54;;;;;;;;;;;;;;;12.14;65.80;98842.91;5048308;28;19996;-73
2021/10/05 05:28:20;;;;;;;;;;;;;;;12.15;65.43;98847.22;5047941;28;19912;-72
2021/10/05 05:30:45;;;;;;;;;;;;;;;12.12;65.35;98846.63;5049417;28;19924;-71
2021/10/05 05:33:10;;;;;;;;;;;;;;;12.12;66.26;98852.72;5048113;28;19913;-71
2021/10/05 05:35:36;;;;;;;;;;;;;;;12.12;65.71;98862.47;5046822;28;20478;-72
2021/10/05 05:38:01;;;;;;;;;;;;;;;12.10;65.88;98844.06;5049212;28;19921;-72
2021/10/05 05:40:26;;;;;;;;;;;;;;;12.07;65.73;98836.38;5048851;28;19920;-72
2021/10/05 05:42:51;;;;;;;;;;;;;;;12.08;66.27;98839.84;5048916;28;19912;-73
2021/10/05 05:45:17;;;;;;;;;;;;;;;12.05;66.16;98830.34;5048396;28;20000;-72
2021/10/05 05:47:42;;;;;;;;;;;;;;;12.01;66.22;98829.72;5048393;28;19995;-73
2021/10/05 05:50:08;;;;;;;;;;;;;;;11.98;66.15;98824.63;5048285;28;19951;-72
2021/10/05 05:52:33;;;;;;;;;;;;;;;11.97;65.93;98819.47;5047776;28;19912;-73
2021/10/05 05:54:59;;;;;;;;;;;;;;;11.94;65.97;98814.41;5048289;28;19939;-72
2021/10/05 05:57:24;;;;;;;;;;;;;;;11.95;66.55;98822.22;5048168;28;20011;-71
2021/10/05 05:59:52;;;;;;;;;;;;;;;11.96;66.34;98828.34;5048220;28;19966;-73
2021/10/05 06:02:17;;;;;;;;;;;;;;;11.95;66.11;98834.59;5046864;28;19913;-72
2021/10/05 06:04:42;;;;;;;;;;;;;;;11.95;66.04;98834.59;5052303;28;20257;-73
2021/10/05 06:07:08;;;;;;;;;;;;;;;11.96;66.25;98833.63;5052654;28;19913;-73
2021/10/05 06:09:36;;;;;;;;;;;;;;;11.97;65.56;98837.97;5052157;28;19913;-71
2021/10/05 06:12:04;;;;;;;;;;;;;;;11.98;65.66;98821.16;5051420;28;20311;-72
2021/10/05 06:14:29;;;;;;;;;;;;;;;12.01;66.20;98823.56;5051799;28;19974;-72
2021/10/05 06:16:55;;;;;;;;;;;;;;;11.99;65.27;98822.88;5051955;28;20334;-72
2021/10/05 06:19:21;;;;;;;;;;;;;;;12.02;65.27;98830.56;5051356;28;20329;-72
2021/10/05 06:21:46;;;;;;;;;;;;;;;12.06;65.04;98837.34;5050908;28;20027;-72
2021/10/05 06:24:12;;;;;;;;;;;;;;;12.09;64.97;98837.09;5054382;28;19912;-73
2021/10/05 06:26:38;;;;;;;;;;;;;;;12.12;64.64;98834.25;5052157;28;19912;-72
2021/10/05 06:29:03;;;;;;;;;;;;;;;12.14;65.50;98832.34;5051340;28;20010;-73
2021/10/05 06:31:28;;;;;;;;;;;;;;;12.12;65.07;98826.31;5050008;28;19917;-72
2021/10/05 06:33:53;;;;;;;;;;;;;;;12.13;65.20;98820.06;5051557;28;20348;-71
2021/10/05 06:36:19;;;;;;;;;;;;;;;12.11;65.74;98816.72;5051511;28;19913;-74
2021/10/05 06:38:44;;;;;;;;;;;;;;;12.05;65.65;98809.22;5052509;28;19919;-73
2021/10/05 06:41:09;;;;;;;;;;;;;;;12.02;65.64;98818.19;5053540;28;19917;-70
2021/10/05 06:43:34;;;;;;;;;;;;;;;11.99;65.96;98826.34;5052772;28;19916;-74
2021/10/05 06:46:00;;;;;;;;;;;;;;;12.02;66.14;98814.72;5051370;28;20296;-73
2021/10/05 06:48:25;;;;;;;;;;;;;;;12.03;66.25;98817.25;5051405;28;19939;-71
2021/10/05 06:50:50;;;;;;;;;;;;;;;12.07;66.00;98819.69;5051269;28;19913;-72
2021/10/05 06:53:16;;;;;;;;;;;;;;;12.09;66.19;98810.69;5050439;28;19948;-71
2021/10/05 06:55:42;;;;;;;;;;;;;;;12.10;65.78;98816.81;5060207;28;19978;-72
2021/10/05 06:58:07;;;;;;;;;;;;;;;12.11;66.36;98815.84;5063653;28;19913;-72
2021/10/05 07:00:32;;;;;;;;;;;;;;;12.18;65.91;98811.81;5066984;28;19924;-71
2021/10/05 07:02:57;;;;;;;;;;;;;;;12.23;65.53;98805.25;5062374;28;19924;-73
2021/10/05 07:05:23;;;;;;;;;;;;;;;12.33;65.64;98807.22;5063482;28;19912;-72
2021/10/05 07:07:49;;;;;;;;;;;;;;;12.43;65.54;98808.28;5058696;28;19912;-73
2021/10/05 07:10:15;;;;;;;;;;;;;;;12.50;64.85;98804.19;5053950;28;19920;-72
2021/10/05 07:12:41;;;;;;;;;;;;;;;12.54;64.62;98799.56;5055438;28;19912;-72
2021/10/05 07:15:07;;;;;;;;;;;;;;;12.62;64.87;98797.19;5053754;28;19919;-72
2021/10/05 07:17:32;;;;;;;;;;;;;;;12.72;64.34;98798.19;5050972;28;20411;-71
2021/10/05 07:19:58;;;;;;;;;;;;;;;12.82;63.93;98786.00;5050042;28;19935;-73
2021/10/05 07:22:23;;;;;;;;;;;;;;;12.92;64.50;98786.16;5049686;28;19916;-74
2021/10/05 07:24:49;;;;;;;;;;;;;;;13.07;63.94;98787.63;5050379;28;19916;-71
2021/10/05 07:27:14;;;;;;;;;;;;;;;13.19;62.99;98785.88;5050211;28;20435;-72
2021/10/05 07:29:39;;;;;;;;;;;;;;;13.28;63.62;98779.03;5050508;28;19917;-72
2021/10/05 07:32:05;;;;;;;;;;;;;;;13.29;63.29;98773.66;5052394;28;19944;-73
2021/10/05 07:34:30;;;;;;;;;;;;;;;13.33;63.48;98774.22;5048928;28;19916;-72
2021/10/05 07:36:55;;;;;;;;;;;;;;;13.43;62.79;98771.72;5050362;28;19913;-72
2021/10/05 07:39:20;;;;;;;;;;;;;;;13.49;62.56;98764.16;5050263;28;20322;-72
2021/10/05 07:41:46;;;;;;;;;;;;;;;13.61;62.73;98758.84;5049659;28;20020;-71
2021/10/05 07:44:12;;;;;;;;;;;;;;;13.71;61.99;98765.97;5050418;28;19920;-75
2021/10/05 07:46:38;;;;;;;;;;;;;;;13.79;62.13;98756.59;5049618;28;19920;-73
2021/10/05 07:49:03;;;;;;;;;;;;;;;13.83;61.80;98758.88;5052358;28;20003;-72
2021/10/05 07:51:29;;;;;;;;;;;;;;;13.87;61.62;98749.69;5049095;28;20011;-72
2021/10/05 07:53:54;;;;;;;;;;;;;;;13.91;62.03;98748.50;5049967;28;19947;-73
2021/10/05 07:56:19;;;;;;;;;;;;;;;13.98;61.58;98748.00;5049675;28;19962;-72
2021/10/05 07:58:44;;;;;;;;;;;;;;;14.04;61.88;98745.69;5049621;28;19971;-71
2021/10/05 08:01:10;;;;;;;;;;;;;;;14.17;61.69;98748.19;5047909;28;19921;-72
2021/10/05 08:03:35;;;;;;;;;;;;;;;14.18;60.99;98731.34;5049477;28;19916;-72
2021/10/05 08:06:00;;;;;;;;;;;;;;;14.26;60.43;98728.91;5049905;28;19939;-72
2021/10/05 08:08:25;;;;;;;;;;;;;;;14.27;61.47;98735.88;5049125;28;19916;-73
2021/10/05 08:10:51;;;;;;;;;;;;;;;14.30;60.91;98730.34;5049352;28;19956;-74
2021/10/05 08:13:16;;;;;;;;;;;;;;;14.35;61.03;98717.56;5049737;28;19913;-72
2021/10/05 08:15:41;;;;;;;;;;;;;;;14.49;60.93;98723.53;5053621;28;19920;-72
2021/10/05 08:18:06;;;;;;;;;;;;;;;14.56;60.36;98714.97;5050549;28;19913;-73
2021/10/05 08:20:32;;;;;;;;;;;;;;;14.58;60.42;98710.38;5050213;28;19931;-72
2021/10/05 08:22:57;;;;;;;;;;;;;;;14.67;60.31;98705.28;5049308;28;19976;-73
2021/10/05 08:25:23;;;;;;;;;;;;;;;14.78;60.47;98690.13;5049582;28;19935;-73
2021/10/05 08:27:49;;;;;;;;;;;;;;;14.85;60.35;98687.00;5050018;28;19916;-72
2021/10/05 08:30:15;;;;;;;;;;;;;;;14.99;59.95;98684.84;5049313;28;19912;-72
2021/10/05 08:32:41;;;;;;;;;;;;;;;15.17;59.55;98681.59;5049443;28;20387;-74
2021/10/05 08:35:07;;;;;;;;;;;;;;;15.26;59.39;98678.16;5049782;28;19913;-71
2021/10/05 08:37:32;;;;;;;;;;;;;;;15.37;58.79;98685.16;5049607;28;19916;-72
2021/10/05 08:39:58;;;;;;;;;;;;;;;15.40;58.92;98671.63;5049408;28;19993;-72
2021/10/05 08:42:23;;;;;;;;;;;;;;;15.60;58.82;98678.72;5048972;28;19936;-72
2021/10/05 08:44:49;;;;;;;;;;;;;;;15.97;58.29;98669.28;5048963;28;19935;-72
2021/10/05 08:47:16;;;;;;;;;;;;;;;16.31;57.54;98673.25;5048903;28;19920;-72
2021/10/05 08:49:43;;;;;;;;;;;;;;;16.63;56.39;98666.81;5048407;28;20368;-72
2021/10/05 08:52:08;;;;;;;;;;;;;;;17.21;54.76;98659.72;5048811;28;19970;-72
2021/10/05 08:54:33;;;;;;;;;;;;;;;18.01;52.33;98660.88;5049259;28;19916;-73
2021/10/05 08:56:59;;;;;;;;;;;;;;;18.57;50.71;98664.25;5049083;28;19990;-72
2021/10/05 08:59:24;;;;;;;;;;;;;;;19.04;49.28;98666.66;5048869;28;19920;-74
2021/10/05 09:01:50;;;;;;;;;;;;;;;19.73;47.60;98654.16;5048609;28;19931;-74
2021/10/05 09:04:15;;;;;;;;;;;;;;;20.22;46.34;98648.94;5047935;28;19920;-72
2021/10/05 09:06:43;;;;;;;;;;;;;;;21.07;44.58;98647.75;5049354;28;20482;-71
2021/10/05 09:09:08;;;;;;;;;;;;;;;21.52;43.47;98646.34;5048915;28;20403;-72
2021/10/05 09:11:38;;;;;;;;;;;;;;;21.68;42.69;98638.19;5047803;28;19955;-72
2021/10/05 09:14:04;;;;;;;;;;;;;;;22.40;41.72;98627.25;5049087;28;19925;-72
2021/10/05 09:16:30;;;;;;;;;;;;;;;22.71;40.18;98623.63;5048274;28;20293;-73
2021/10/05 09:19:03;;;;;;;;;;;;;;;23.14;39.54;98615.84;5049675;28;19944;-73
2021/10/05 09:21:33;;;;;;;;;;;;;;;23.70;38.95;98605.41;5047595;28;20784;-73
2021/10/05 09:24:09;;;;;;;;;;;;;;;23.86;37.60;98608.91;5051855;28;20347;-73
2021/10/05 09:26:40;;;;;;;;;;;;;;;23.79;37.96;98588.13;5048670;28;19923;-72
2021/10/05 09:29:32;;;;;;;;;;;;;;;24.12;37.88;98589.50;5048802;28;19920;-73
2021/10/05 09:32:02;;;;;;;;;;;;;;;24.01;37.19;98580.09;5044423;28;20417;-72
2021/10/05 09:34:35;;;;;;;;;;;;;;;24.12;37.50;98571.50;5047435;28;20407;-72
2021/10/05 09:37:04;;;;;;;;;;;;;;;24.24;36.84;98579.88;5048760;28;19922;-72
2021/10/05 09:39:44;;;;;;;;;;;;;;;23.76;37.76;98569.69;5052347;28;19948;-72
2021/10/05 09:42:09;;;;;;;;;;;;;;;24.55;36.72;98555.31;5054681;28;19917;-72
2021/10/05 09:44:35;;;;;;;;;;;;;;;24.32;36.50;98544.75;5053030;28;20008;-71
2021/10/05 09:47:00;;;;;;;;;;;;;;;24.55;36.59;98559.88;5051116;28;19912;-72
2021/10/05 09:49:26;;;;;;;;;;;;;;;24.41;36.50;98548.13;5050422;28;20144;-73
2021/10/05 09:51:59;;;;;;;;;;;;;;;24.56;36.25;98537.28;5050750;28;20003;-73
2021/10/05 09:54:25;;;;;;;;;;;;;;;24.53;36.04;98538.50;5052767;28;19975;-73
2021/10/05 09:56:50;;;;;;;;;;;;;;;24.41;36.12;98532.78;5052404;28;19924;-73
2021/10/05 09:59:16;;;;;;;;;;;;;;;24.64;35.95;98532.59;5050763;28;19916;-73
2021/10/05 10:01:41;;;;;;;;;;;;;;;25.17;35.48;98528.56;5052213;28;20265;-72
2021/10/05 10:04:07;;;;;;;;;;;;;;;24.95;35.51;98530.50;5051873;28;19923;-73
2021/10/05 10:06:32;;;;;;;;;;;;;;;24.91;35.45;98527.38;5052477;28;20372;-72
2021/10/05 10:08:58;;;;;;;;;;;;;;;24.56;35.72;98526.50;5052284;28;19916;-72
2021/10/05 10:11:25;;;;;;;;;;;;;;;24.80;36.07;98527.91;5053428;28;19915;-71
2021/10/05 10:13:51;;;;;;;;;;;;;;;24.85;35.97;98528.16;5051906;28;19943;-72
2021/10/05 10:16:17;;;;;;;;;;;;;;;24.26;36.30;98517.75;5050863;28;19948;-71
2021/10/05 10:18:58;;;;;;;;;;;;;;;24.14;36.89;98495.91;5052123;28;20770;-71
2021/10/05 10:21:25;;;;;;;;;;;;;;;23.99;36.92;98504.88;5066931;28;19959;-72
2021/10/05 10:24:03;;;;;;;;;;;;;;;23.47;37.84;98478.25;5071612;28;19916;-73
2021/10/05 10:26:28;;;;;;;;;;;;;;;22.89;39.42;98483.53;5072050;28;19912;-71
2021/10/05 10:28:58;;;;;;;;;;;;;;;22.44;40.44;98478.13;5071599;28;20253;-72
2021/10/05 10:31:28;;;;;;;;;;;;;;;21.84;41.65;98487.06;5068671;28;19962;-74
2021/10/05 10:33:54;;;;;;;;;;;;;;;21.12;42.67;98492.66;5071123;28;19943;-72
2021/10/05 10:36:34;;;;;;;;;;;;;;;20.80;44.02;98489.09;5068203;28;19961;-73
2021/10/05 10:39:05;;;;;;;;;;;;;;;20.76;44.66;98482.41;5069847;28;19912;-72
2021/10/05 10:41:30;;;;;;;;;;;;;;;20.45;44.89;98495.69;5068305;28;19982;-71
2021/10/05 10:44:00;;;;;;;;;;;;;;;20.13;45.95;98505.41;5068444;28;20315;-73
2021/10/05 10:46:27;;;;;;;;;;;;;;;20.07;46.09;98498.06;5071436;28;19931;-70
2021/10/05 10:48:54;;;;;;;;;;;;;;;19.68;46.73;98499.53;5071512;28;19956;-72
2021/10/05 10:51:20;;;;;;;;;;;;;;;19.40;47.60;98507.00;5070775;28;19912;-72
2021/10/05 10:53:46;;;;;;;;;;;;;;;19.12;48.38;98511.72;5071561;28;19916;-71
2021/10/05 10:56:15;;;;;;;;;;;;;;;19.19;48.40;98502.06;5072049;28;19995;-73
2021/10/05 10:58:42;;;;;;;;;;;;;;;19.13;48.77;98494.72;5071488;28;19916;-71
2021/10/05 11:01:19;;;;;;;;;;;;;;;19.13;48.68;98491.22;5057326;28;19922;-72
2021/10/05 11:03:44;;;;;;;;;;;;;;;19.15;48.84;98487.38;5042838;28;19974;-72
2021/10/05 11:06:16;;;;;;;;;;;;;;;19.20;48.83;98493.09;5069857;28;19912;-72
2021/10/05 11:08:52;;;;;;;;;;;;;;;19.12;48.92;98502.88;5071124;28;20014;-72
2021/10/05 11:11:27;;;;;;;;;;;;;;;19.00;49.39;98494.31;5070160;28;20286;-73
2021/10/05 11:13:53;;;;;;;;;;;;;;;18.87;49.34;98490.25;5070736;28;19932;-71
2021/10/05 11:16:22;;;;;;;;;;;;;;;18.55;50.46;98495.41;5070699;28;19995;-73
2021/10/05 11:18:49;;;;;;;;;;;;;;;18.41;51.03;98486.16;5070522;28;20261;-72
2021/10/05 11:21:16;;;;;;;;;;;;;;;18.29;51.25;98487.44;5069356;28;19912;-73
2021/10/05 11:23:42;;;;;;;;;;;;;;;18.19;51.37;98495.53;5069871;28;20429;-72
2021/10/05 11:26:08;;;;;;;;;;;;;;;18.03;51.91;98496.22;5070998;28;19920;-73
2021/10/05 11:28:34;;;;;;;;;;;;;;;17.85;52.10;98484.75;5070989;28;19912;-72
2021/10/05 11:31:01;;;;;;;;;;;;;;;17.71;52.42;98470.94;5070624;28;19916;-71
2021/10/05 11:33:29;;;;;;;;;;;;;;;17.73;52.66;98460.97;5060188;28;19934;-73
2021/10/05 11:35:55;;;;;;;;;;;;;;;17.75;52.72;98466.97;5049398;28;20379;-73
2021/10/05 11:38:20;;;;;;;;;;;;;;;17.76;53.26;98447.31;5050750;28;19928;-73
2021/10/05 11:40:57;;;;;;;;;;;;;;;17.74;53.40;98467.13;5050706;28;20288;-72
2021/10/05 11:43:40;;;;;;;;;;;;;;;17.79;53.17;98456.84;5050543;28;19919;-73
2021/10/05 11:46:12;;;;;;;;;;;;;;;17.83;53.13;98444.91;5050699;28;19920;-73
2021/10/05 11:48:43;;;;;;;;;;;;;;;17.82;53.33;98440.59;5046996;28;20308;-74
2021/10/05 11:51:08;;;;;;;;;;;;;;;17.69;53.72;98440.94;5049452;28;19912;-73
2021/10/05 11:53:34;;;;;;;;;;;;;;;17.69;53.45;98435.59;5050301;28;19972;-73
2021/10/05 11:56:03;;;;;;;;;;;;;;;17.66;54.06;98430.59;5050344;28;20340;-72
2021/10/05 11:58:38;;;;;;;;;;;;;;;17.62;54.37;98441.69;5050333;28;19916;-72
2021/10/05 12:01:11;;;;;;;;;;;;;;;17.66;54.32;98429.75;5048773;28;19912;-72
2021/10/05 12:03:36;;;;;;;;;;;;;;;17.54;53.98;98427.31;5050147;28;19919;-71
2021/10/05 12:06:01;;;;;;;;;;;;;;;17.46;54.24;98423.75;5048667;28;20300;-72
2021/10/05 12:08:26;;;;;;;;;;;;;;;17.45;54.37;98425.59;5046323;28;20376;-72
2021/10/05 12:10:55;;;;;;;;;;;;;;;17.35;54.33;98427.47;5049386;28;20030;-71
2021/10/05 12:13:21;;;;;;;;;;;;;;;17.35;54.47;98424.81;5049426;28;20348;-73
2021/10/05 12:15:46;;;;;;;;;;;;;;;17.30;54.72;98430.59;5049585;28;19999;-73
2021/10/05 12:18:14;;;;;;;;;;;;;;;17.23;55.00;98413.56;5050287;28;20357;-71
2021/10/05 12:20:39;;;;;;;;;;;;;;;17.12;55.57;98421.75;5048972;28;19927;-73
2021/10/05 12:23:07;;;;;;;;;;;;;;;17.09;56.53;98412.25;5049236;28;19931;-73
2021/10/05 12:25:37;;;;;;;;;;;;;;;17.06;56.97;98409.06;5049634;28;19919;-72
2021/10/05 12:28:05;;;;;;;;;;;;;;;16.99;57.85;98413.31;5049767;28;19913;-71
2021/10/05 12:30:31;;;;;;;;;;;;;;;16.93;58.64;98406.72;5049404;28;19919;-72
2021/10/05 12:32:58;;;;;;;;;;;;;;;16.72;58.64;98405.16;5048627;28;19984;-72
2021/10/05 12:35:35;;;;;;;;;;;;;;;16.65;60.68;98388.09;5049699;28;20316;-73
2021/10/05 12:38:02;;;;;;;;;;;;;;;16.56;61.17;98388.16;5049541;28;19974;-74
2021/10/05 12:40:38;;;;;;;;;;;;;;;16.55;60.84;98405.94;5049363;28;19956;-73
2021/10/05 12:43:03;;;;;;;;;;;;;;;16.57;61.10;98395.16;5048716;28;19920;-73
2021/10/05 12:45:28;;;;;;;;;;;;;;;16.45;62.06;98392.69;5047692;28;19917;-72